Latest Weather Observations for Gladstone

IDQ60801

Issued at 11:35 am EST Thursday 23 October 2014 (issued every 30 minutes, with the page automatically refreshed every 10 minutes)

About weather observations | Map of weather stations | Latest weather observations for QLD | Other Formats
Station Details ID: 039123 Name: GLADSTONE RADAR Lat: -23.86 Lon: 151.26 Height: 74.5 m
Data from the previous 72 hours. | See also: Recent months at Gladstone
Date/Time
EST
Temp
°C
App
Temp
°C
Dew
Point
Rel
Hum
%
Delta-T
°C
Wind Press
QNH
hPa
Press
MSL
hPa
Rain
since 9 am
mm
Dir
 
Spd
km/h
Gust
km/h
Spd
kts
Gust
kts
23/11:30am 27.1 24.4 13.4 42 8.1 ENE 20 28 11 15 1020.3 1019.9 0.0
23/11:00am 27.2 24.4 13.2 42 8.2 ENE 20 30 11 16 1020.7 1020.3 0.0
23/10:30am 27.3 24.3 12.1 39 8.8 ENE 19 28 10 15 1021.1 1020.7 0.0
23/10:00am 26.2 23.4 11.2 39 8.5 E 17 28 9 15 1021.5 1021.1 0.0
23/09:30am 25.0 22.5 9.7 38 8.4 SE 13 17 7 9 1021.8 1021.4 0.0
23/09:00am 24.2 21.0 11.2 44 7.3 E 19 28 10 15 1021.9 1021.5 0.0
23/08:30am 23.3 20.5 11.4 47 6.7 ESE 17 26 9 14 1022.1 1021.7 0.0
23/08:00am 22.8 20.5 11.8 50 6.2 ESE 15 24 8 13 1022.1 1021.7 0.0
23/07:30am 21.9 19.5 12.5 55 5.3 ESE 17 26 9 14 1021.9 1021.5 0.0
23/07:00am 20.9 18.9 12.8 60 4.6 SE 15 22 8 12 1021.7 1021.3 0.0
23/06:30am 19.1 17.8 12.6 66 3.7 SSE 11 24 6 13 1021.5 1021.1 0.0
23/06:00am 17.4 15.6 12.1 71 2.9 S 13 19 7 10 1021.5 1021.1 0.0
23/05:30am 17.2 15.3 11.9 71 2.9 SSE 13 20 7 11 1021.4 1021.0 0.0
23/05:00am 17.1 14.8 11.8 71 2.9 S 15 20 8 11 1021.1 1020.7 0.0
23/04:30am 17.4 15.1 11.9 70 3.0 SSE 15 24 8 13 1020.9 1020.5 0.0
23/04:00am 17.4 14.8 11.9 70 3.0 SSE 17 24 9 13 1020.8 1020.4 0.0
23/03:30am 17.5 15.3 12.0 70 3.0 SSE 15 22 8 12 1020.6 1020.2 0.0
23/03:00am 17.6 15.4 12.1 70 3.0 SSE 15 20 8 11 1020.6 1020.2 0.0
23/02:30am 17.6 15.4 12.1 70 3.0 S 15 19 8 10 1020.9 1020.5 0.0
23/02:00am 17.9 16.2 12.4 70 3.1 S 13 19 7 10 1021.1 1020.7 0.0
23/01:30am 18.0 16.3 12.5 70 3.1 S 13 20 7 11 1021.3 1020.9 0.0
23/01:00am 18.0 16.3 12.5 70 3.1 S 13 17 7 9 1021.7 1021.3 0.0
23/12:30am 18.5 16.4 12.5 68 3.3 SSE 15 20 8 11 1022.0 1021.6 0.0
23/12:00am 18.8 16.4 12.8 68 3.4 SE 17 22 9 12 1022.2 1021.8 0.0
 
Date/Time
EST
Temp
°C
App
Temp
°C
Dew
Point
Rel
Hum
%
Delta-T
°C
Wind Press
QNH
hPa
Press
MSL
hPa
Rain
since 9 am
mm
Dir
 
Spd
km/h
Gust
km/h
Spd
kts
Gust
kts
22/11:30pm 19.4 16.6 13.3 68 3.5 SE 20 26 11 14 1022.4 1022.0 0.0
22/11:00pm 19.8 17.1 13.5 67 3.6 ESE 20 28 11 15 1022.4 1022.0 0.0
22/10:30pm 20.0 16.9 13.5 66 3.7 ESE 22 32 12 17 1022.5 1022.1 0.0
22/10:00pm 20.6 16.8 13.6 64 4.0 E 26 41 14 22 1022.4 1022.0 0.0
22/09:30pm 20.8 16.5 13.3 62 4.3 E 28 39 15 21 1022.3 1021.9 0.0
22/09:12pm 20.9 16.3 13.4 62 4.3 E 30 48 16 26 1022.3 1021.9 0.0
22/09:00pm 20.8 16.1 13.3 62 4.3 E 30 43 16 23 1022.1 1021.7 0.0
22/08:50pm 21.0 16.1 13.7 63 4.2 E 32 50 17 27 1022.0 1021.6 0.0
22/08:30pm 20.8 16.6 13.5 63 4.2 E 28 43 15 23 1021.8 1021.4 0.0
22/08:00pm 21.0 16.1 13.7 63 4.2 E 32 46 17 25 1021.6 1021.2 0.0
22/07:30pm 21.0 17.1 14.4 66 3.9 E 28 43 15 23 1021.4 1021.0 0.0
22/07:00pm 21.2 16.5 14.4 65 4.0 E 32 43 17 23 1021.2 1020.8 0.0
22/06:30pm 21.1 15.8 14.3 65 4.0 E 35 48 19 26 1020.8 1020.4 0.0
22/06:00pm 21.4 16.6 14.6 65 4.0 E 33 50 18 27 1020.6 1020.2 0.0
22/05:30pm 21.8 16.9 14.4 63 4.3 E 33 48 18 26 1020.3 1019.9 0.0
22/05:00pm 22.4 17.2 14.5 61 4.6 E 35 50 19 27 1020.0 1019.6 0.0
22/04:41pm 22.6 17.0 13.4 56 5.3 E 35 54 19 29 1019.7 1019.3 0.0
22/04:30pm 22.9 17.4 12.5 52 5.9 ENE 33 46 18 25 1019.6 1019.2 0.0
22/04:12pm 23.9 19.1 12.8 49 6.4 E 30 48 16 26 1019.5 1019.1 0.0
22/04:00pm 23.8 18.6 13.4 52 6.0 ENE 33 43 18 23 1019.6 1019.2 0.0
22/03:32pm 24.4 19.9 12.7 48 6.8 E 28 50 15 27 1019.4 1019.0 0.0
22/03:30pm 25.2 21.1 13.7 49 6.8 E 28 41 15 22 1019.5 1019.1 0.0
22/03:29pm 25.1 20.8 13.3 48 6.9 E 28 46 15 25 1019.5 1019.1 0.0
22/03:00pm 25.9 21.7 14.7 50 6.7 E 30 43 16 23 1019.5 1019.1 0.0
22/02:30pm 27.2 24.7 15.2 47 7.3 ENE 22 35 12 19 1019.8 1019.4 0.0
22/02:00pm 26.6 22.5 13.7 45 7.6 E 28 41 15 22 1020.2 1019.8 0.0
22/01:30pm 26.0 22.5 13.5 46 7.4 E 24 39 13 21 1020.8 1020.4 0.0
22/01:00pm 27.1 24.4 13.4 42 8.1 E 20 32 11 17 1021.0 1020.6 0.0
22/12:30pm 25.5 22.1 13.7 48 7.0 E 24 37 13 20 1021.4 1021.0 0.0
22/12:00pm 25.0 21.5 13.5 48 6.7 E 24 35 13 19 1022.0 1021.6 0.0
22/11:30am 24.1 21.0 13.3 51 6.3 ESE 22 37 12 20 1022.5 1022.1 0.0
22/11:00am 25.8 22.5 14.0 48 7.0 E 24 37 13 20 1022.9 1022.5 0.0
22/10:30am 22.9 19.9 13.7 56 5.4 ESE 22 33 12 18 1023.4 1023.0 0.0
22/10:00am 22.7 20.6 13.5 56 5.3 ESE 17 26 9 14 1023.7 1023.3 0.0
22/09:30am 22.9 19.9 13.7 56 5.4 E 22 32 12 17 1023.9 1023.5 0.0
22/09:00am 23.7 19.4 13.3 52 6.0 E 28 41 15 22 1023.8 1023.4 0.2
22/08:30am 24.1 21.2 15.1 57 5.4 ESE 24 37 13 20 1023.9 1023.5 0.2
22/08:00am 22.6 20.7 15.7 65 4.1 SE 20 35 11 19 1023.8 1023.4 0.2
22/07:30am 21.2 19.1 15.1 68 3.6 SE 20 32 11 17 1023.7 1023.3 0.2
22/07:00am 21.0 19.7 15.8 72 3.1 SE 17 35 9 19 1023.3 1022.9 0.2
22/06:30am 19.3 17.5 15.4 78 2.3 SE 19 32 10 17 1023.1 1022.7 0.2
22/06:00am 18.6 17.6 15.7 83 1.7 SE 15 26 8 14 1022.8 1022.4 0.2
22/05:30am 18.1 16.7 15.5 85 1.5 SE 17 24 9 13 1022.6 1022.2 0.2
22/05:00am 18.1 17.1 15.7 86 1.4 SE 15 26 8 14 1022.3 1021.9 0.2
22/04:30am 18.2 17.3 15.8 86 1.4 SSE 15 26 8 14 1022.1 1021.7 0.2
22/04:00am 18.5 17.2 15.9 85 1.5 SE 17 26 9 14 1022.1 1021.7 0.2
22/03:30am 18.8 18.0 16.0 84 1.7 SE 15 24 8 13 1022.3 1021.9 0.2
22/03:00am 19.1 18.1 16.5 85 1.6 SE 17 24 9 13 1022.3 1021.9 0.2
22/02:30am 19.0 18.0 16.6 86 1.4 SE 17 24 9 13 1022.4 1022.0 0.2
22/02:00am 19.0 18.3 16.4 85 1.6 SE 15 26 8 14 1022.7 1022.3 0.2
22/01:30am 19.7 18.7 15.6 77 2.4 SE 15 20 8 11 1022.8 1022.4 0.0
22/01:00am 19.9 18.8 15.3 75 2.7 SE 15 22 8 12 1023.3 1022.9 0.0
22/12:30am 20.6 18.8 15.4 72 3.1 ESE 19 32 10 17 1023.5 1023.1 0.0
22/12:00am 21.0 19.2 15.5 71 3.3 ESE 19 32 10 17 1023.8 1023.4 0.0
 
Date/Time
EST
Temp
°C
App
Temp
°C
Dew
Point
Rel
Hum
%
Delta-T
°C
Wind Press
QNH
hPa
Press
MSL
hPa
Rain
since 9 am
mm
Dir
 
Spd
km/h
Gust
km/h
Spd
kts
Gust
kts
21/11:30pm 21.3 19.5 15.4 69 3.5 E 19 30 10 16 1024.1 1023.8 0.0
21/11:00pm 21.5 17.9 15.3 68 3.7 E 28 43 15 23 1024.3 1024.0 0.0
21/10:30pm 21.4 18.7 15.5 69 3.5 E 24 35 13 19 1024.4 1024.1 0.0
21/10:00pm 21.6 18.6 15.9 70 3.4 E 26 39 14 21 1024.5 1024.2 0.0
21/09:30pm 21.5 18.4 15.6 69 3.5 E 26 43 14 23 1024.6 1024.3 0.0
21/09:00pm 21.6 18.0 15.2 67 3.8 E 28 41 15 22 1024.5 1024.2 0.0
21/08:30pm 21.3 18.4 15.2 68 3.6 E 24 39 13 21 1024.5 1024.2 0.0
21/08:00pm 21.4 18.6 15.3 68 3.6 E 24 37 13 20 1024.3 1024.0 0.0
21/07:30pm 21.5 18.6 15.1 67 3.8 E 24 39 13 21 1024.0 1023.6 0.0
21/07:02pm 21.6 17.9 15.0 66 3.9 E 28 46 15 25 1023.8 1023.4 0.0
21/07:00pm 21.6 17.6 15.2 67 3.8 E 30 46 16 25 1023.7 1023.3 0.0
21/06:57pm 21.6 18.0 15.2 67 3.8 E 28 46 15 25 1023.7 1023.3 0.0
21/06:30pm 21.5 16.9 15.1 67 3.8 E 33 44 18 24 1023.3 1022.9 0.0
21/06:00pm 21.7 16.7 15.1 66 3.9 E 35 46 19 25 1022.9 1022.5 0.0
21/05:30pm 22.0 15.5 13.9 60 4.7 E 41 50 22 27 1022.6 1022.2 0.0
21/05:00pm 22.6 16.8 13.9 58 5.1 ENE 37 52 20 28 1022.1 1021.7 0.0
21/04:30pm 23.4 18.3 14.7 58 5.2 E 35 54 19 29 1021.9 1021.5 0.0
21/04:05pm 23.8 18.2 14.5 56 5.5 E 37 56 20 30 1021.9 1021.5 0.0
21/04:00pm 23.6 17.0 13.8 54 5.7 E 41 56 22 30 1021.8 1021.4 0.0
21/03:30pm 24.2 18.2 13.4 51 6.3 ENE 37 54 20 29 1021.7 1021.3 0.0
21/03:13pm 25.2 19.7 13.7 49 6.8 ENE 35 54 19 29 1021.7 1021.3 0.0
21/03:00pm 24.9 18.6 13.5 49 6.7 ENE 39 54 21 29 1021.6 1021.2 0.0
21/02:30pm 25.4 19.5 13.6 48 6.9 ENE 37 50 20 27 1021.8 1021.4 0.0
21/02:00pm 25.7 19.8 13.5 46 7.2 ENE 37 50 20 27 1022.2 1021.8 0.0
21/01:30pm 25.8 19.7 13.0 45 7.5 ENE 37 50 20 27 1022.5 1022.1 0.0
21/01:00pm 26.4 21.5 14.2 47 7.3 ENE 33 46 18 25 1023.0 1022.6 0.0
21/12:30pm 26.9 22.5 14.0 45 7.7 ENE 30 44 16 24 1023.4 1023.0 0.0
21/12:00pm 27.4 22.6 14.1 44 7.9 ENE 32 43 17 23 1023.8 1023.4 0.0
21/11:30am 27.1 22.2 13.8 44 7.9 ENE 32 48 17 26 1024.3 1024.0 0.0
21/11:00am 26.5 21.5 13.3 44 7.7 E 32 44 17 24 1024.6 1024.3 0.0
21/10:30am 25.3 19.3 12.2 44 7.5 E 35 44 19 24 1024.8 1024.5 0.0
21/10:00am 26.6 22.2 13.0 43 7.9 E 28 43 15 23 1025.1 1024.8 0.0
21/09:30am 25.4 21.0 14.2 50 6.7 E 30 43 16 23 1025.3 1025.0 0.0
21/09:27am 24.8 20.2 13.4 49 6.7 E 30 48 16 26 1025.2 1024.9 0.0
21/09:00am 23.5 17.8 13.1 52 6.0 E 35 48 19 26 1025.2 1024.9 0.0
21/08:33am 23.7 19.6 13.8 53 5.8 E 28 46 15 25 1024.9 1024.6 0.0
21/08:30am 23.5 18.7 13.9 55 5.6 E 32 46 17 25 1024.9 1024.6 0.0
21/08:23am 22.3 17.9 12.8 55 5.4 ESE 28 46 15 25 1024.9 1024.6 0.0
21/08:00am 22.4 18.6 13.7 58 5.0 ESE 26 44 14 24 1024.8 1024.5 0.0
21/07:30am 21.3 17.9 13.7 62 4.4 ESE 24 35 13 19 1024.6 1024.3 0.0
21/07:00am 20.4 18.1 14.1 67 3.6 SE 19 32 10 17 1024.3 1024.0 0.0
21/06:30am 20.0 17.1 14.1 69 3.4 SE 22 32 12 17 1024.0 1023.6 0.0
21/06:00am 18.9 16.6 14.2 74 2.7 ESE 19 32 10 17 1023.6 1023.2 0.0
21/05:30am 17.8 15.9 14.1 79 2.1 SE 17 24 9 13 1023.4 1023.0 0.0
21/05:00am 17.9 16.0 14.2 79 2.1 SE 17 28 9 15 1023.0 1022.6 0.0
21/04:30am 18.1 15.8 14.0 77 2.4 SE 19 28 10 15 1022.7 1022.3 0.0
21/04:00am 18.5 16.5 13.8 74 2.7 SSE 17 26 9 14 1022.7 1022.3 0.0
21/03:30am 18.5 16.4 13.6 73 2.8 SSE 17 26 9 14 1022.5 1022.1 0.0
21/03:00am 18.3 16.2 13.6 74 2.7 SE 17 24 9 13 1022.5 1022.1 0.0
21/02:30am 18.6 17.0 13.9 74 2.7 SE 15 22 8 12 1022.5 1022.1 0.0
21/02:00am 18.4 16.4 13.9 75 2.6 SE 17 24 9 13 1022.5 1022.1 0.0
21/01:30am 18.7 16.8 14.2 75 2.6 SE 17 22 9 12 1022.8 1022.4 0.0
21/01:00am 18.8 16.4 13.9 73 2.8 SE 19 28 10 15 1023.0 1022.6 0.0
21/12:30am 18.9 16.8 13.7 72 3.0 SE 17 26 9 14 1023.4 1023.0 0.0
21/12:00am 19.1 17.4 13.7 71 3.1 SE 15 22 8 12 1023.8 1023.4 0.0
 
Date/Time
EST
Temp
°C
App
Temp
°C
Dew
Point
Rel
Hum
%
Delta-T
°C
Wind Press
QNH
hPa
Press
MSL
hPa
Rain
since 9 am
mm
Dir
 
Spd
km/h
Gust
km/h
Spd
kts
Gust
kts
20/11:30pm 19.4 17.8 13.8 70 3.2 SE 15 22 8 12 1024.3 1024.0 0.0
20/11:00pm 19.3 17.2 13.7 70 3.2 SE 17 22 9 12 1024.5 1024.2 0.0
20/10:30pm 19.7 18.1 13.9 69 3.3 SE 15 22 8 12 1024.6 1024.3 0.0
20/10:00pm 20.5 18.6 14.2 67 3.7 ESE 17 26 9 14 1024.5 1024.2 0.0
20/09:30pm 21.0 17.7 13.9 64 4.1 ENE 24 32 13 17 1024.4 1024.1 0.0
20/09:00pm 20.9 17.9 13.8 64 4.1 ENE 22 30 12 16 1024.3 1024.0 0.0
20/08:30pm 20.7 17.2 13.4 63 4.2 ENE 24 32 13 17 1023.9 1023.5 0.0
20/08:00pm 20.7 17.6 13.4 63 4.2 ENE 22 30 12 16 1023.5 1023.1 0.0
20/07:30pm 20.7 17.0 13.9 65 3.9 E 26 37 14 20 1022.9 1022.5 0.0
20/07:00pm 20.7 16.1 13.4 63 4.2 E 30 43 16 23 1022.4 1022.0 0.0
20/06:30pm 20.7 15.6 13.2 62 4.3 E 32 43 17 23 1021.9 1021.5 0.0
20/06:00pm 20.8 15.7 13.0 61 4.4 E 32 41 17 22 1021.7 1021.3 0.0
20/05:30pm 21.4 16.9 13.8 62 4.4 ENE 30 39 16 21 1021.3 1020.9 0.0
20/05:00pm 21.7 16.9 13.9 61 4.5 ENE 32 43 17 23 1020.9 1020.5 0.0
20/04:30pm 22.7 18.8 13.2 55 5.5 ENE 26 33 14 18 1020.8 1020.4 0.0
20/04:00pm 23.6 20.0 12.9 51 6.2 ENE 24 35 13 19 1020.7 1020.3 0.0
20/03:30pm 24.4 20.8 13.0 49 6.6 ENE 24 35 13 19 1020.8 1020.4 0.0
20/03:00pm 25.1 21.2 13.3 48 6.9 ENE 26 39 14 21 1020.9 1020.5 0.0
20/02:30pm 25.4 21.6 12.3 44 7.5 ENE 24 32 13 17 1020.9 1020.5 0.0
20/02:00pm 26.1 22.8 12.9 44 7.7 ENE 22 32 12 17 1021.2 1020.8 0.0
20/01:30pm 26.2 22.7 13.3 45 7.6 ENE 24 35 13 19 1021.6 1021.2 0.0
20/01:00pm 26.5 23.6 12.9 43 7.9 ENE 20 30 11 16 1022.0 1021.6 0.0
20/12:30pm 26.8 23.7 13.5 44 7.9 ENE 22 30 12 16 1022.4 1022.0 0.0
20/12:00pm 26.2 22.8 12.6 43 7.9 NE 22 32 12 17 1022.8 1022.4 0.0

Other Formats:

Comma delimited format used in spreadsheet applications
http://www.bom.gov.au/fwo/IDQ60801/IDQ60801.94380.axf

JavaScript Object Notation format (JSON) in row-major order
http://www.bom.gov.au/fwo/IDQ60801/IDQ60801.94380.json